createdAt,value
2019-03-05T00:01:51.335Z,4.90
2019-03-05T00:04:19.793Z,5.97
2019-03-05T00:06:48.220Z,5.92
2019-03-05T00:09:18.316Z,4.97
2019-03-05T00:11:46.757Z,3.90
2019-03-05T00:14:15.273Z,8.15
2019-03-05T00:16:43.706Z,7.60
2019-03-05T00:19:12.134Z,5.60
2019-03-05T00:21:40.660Z,6.05
2019-03-05T00:24:45.635Z,4.60
2019-03-05T00:27:14.082Z,3.33
2019-03-05T00:29:48.137Z,6.35
2019-03-05T00:32:16.650Z,6.37
2019-03-05T00:34:48.138Z,6.12
2019-03-05T00:37:19.702Z,9.13
2019-03-05T00:40:11.864Z,7.70
2019-03-05T00:42:58.557Z,8.68
2019-03-05T00:45:42.335Z,6.55
2019-03-05T00:48:29.052Z,7.50
2019-03-05T00:51:24.550Z,6.87
2019-03-05T00:53:58.906Z,7.25
2019-03-05T00:56:48.631Z,8.95
2019-03-05T00:59:28.962Z,8.15
2019-03-05T01:02:17.284Z,9.25
2019-03-05T01:04:54.474Z,5.85
2019-03-05T01:07:24.524Z,6.10
2019-03-05T01:09:52.992Z,8.75
2019-03-05T01:12:22.832Z,8.73
2019-03-05T01:14:51.751Z,6.58
2019-03-05T01:17:20.413Z,11.43
2019-03-05T01:19:48.824Z,6.78
2019-03-05T01:22:17.247Z,9.20
2019-03-05T01:24:45.690Z,7.70
2019-03-05T01:27:14.109Z,6.78
2019-03-05T01:29:42.691Z,6.87
2019-03-05T01:32:12.899Z,5.03
2019-03-05T01:34:43.119Z,6.92
2019-03-05T01:37:11.527Z,5.03
2019-03-05T01:39:50.669Z,8.28
2019-03-05T01:42:19.229Z,4.53
2019-03-05T01:44:53.358Z,5.00
2019-03-05T01:47:21.933Z,7.90
2019-03-05T01:49:50.343Z,9.30
2019-03-05T01:52:18.784Z,6.53
2019-03-05T01:54:47.353Z,14.30
2019-03-05T01:57:15.802Z,10.08
2019-03-05T01:59:44.225Z,8.80
2019-03-05T02:02:12.686Z,8.13
2019-03-05T02:04:41.174Z,10.10
2019-03-05T02:07:09.630Z,8.23
2019-03-05T02:09:38.186Z,7.22
2019-03-05T02:12:06.621Z,7.08
2019-03-05T02:14:35.206Z,10.20
2019-03-05T02:17:03.686Z,9.78
2019-03-05T02:19:42.758Z,9.75
2019-03-05T02:22:19.938Z,8.60
2019-03-05T02:25:06.643Z,6.87
2019-03-05T02:27:57.351Z,5.65
2019-03-05T02:30:38.085Z,6.47
2019-03-05T02:33:27.291Z,6.42
2019-03-05T02:36:07.823Z,17.67
2019-03-05T02:38:42.500Z,5.97
2019-03-05T02:41:20.076Z,9.70
2019-03-05T02:44:14.075Z,7.90
2019-03-05T02:46:57.424Z,8.75
2019-03-05T02:49:31.798Z,10.58
2019-03-05T02:52:11.959Z,11.85
2019-03-05T02:55:04.299Z,10.70
2019-03-05T02:57:31.725Z,11.25
2019-03-05T03:00:00.423Z,6.62
2019-03-05T03:02:36.511Z,7.20
2019-03-05T03:05:15.193Z,11.08
2019-03-05T03:07:43.847Z,10.45
2019-03-05T03:10:14.919Z,10.23
2019-03-05T03:12:43.377Z,10.85
2019-03-05T03:15:13.012Z,10.78
2019-03-05T03:17:41.583Z,7.17
2019-03-05T03:20:14.651Z,10.55
2019-03-05T03:22:43.240Z,7.83
2019-03-05T03:25:14.358Z,5.22
2019-03-05T03:27:42.868Z,9.43
2019-03-05T03:30:16.649Z,9.55
2019-03-05T03:32:45.087Z,5.65
2019-03-05T03:35:15.040Z,6.65
2019-03-05T03:37:43.613Z,6.47
2019-03-05T03:40:14.579Z,6.78
2019-03-05T03:42:43.092Z,10.15
2019-03-05T03:45:14.304Z,5.58
2019-03-05T03:47:42.809Z,7.67
2019-03-05T03:50:11.321Z,8.33
2019-03-05T03:52:39.719Z,7.90
2019-03-05T03:55:11.180Z,7.55
2019-03-05T03:57:39.722Z,6.87
2019-03-05T04:00:29.031Z,8.98
2019-03-05T04:02:57.442Z,7.92
2019-03-05T04:05:25.868Z,8.23
2019-03-05T04:07:54.372Z,9.03
2019-03-05T04:10:22.814Z,7.62
2019-03-05T04:12:51.245Z,8.23
2019-03-05T04:15:20.135Z,8.60
2019-03-05T04:17:48.622Z,7.85
2019-03-05T04:20:20.240Z,10.88
2019-03-05T04:22:48.648Z,6.25
2019-03-05T04:25:17.112Z,13.93
2019-03-05T04:27:45.566Z,9.98
2019-03-05T04:30:33.330Z,10.30
2019-03-05T04:33:01.848Z,8.68
2019-03-05T04:35:30.302Z,7.92
2019-03-05T04:37:58.827Z,6.08
2019-03-05T04:40:46.625Z,7.92
2019-03-05T04:43:15.106Z,9.90
2019-03-05T04:46:03.442Z,8.83
2019-03-05T04:48:31.917Z,11.12
2019-03-05T04:51:04.449Z,10.63
2019-03-05T04:53:32.878Z,8.35
2019-03-05T04:56:02.612Z,7.53
2019-03-05T04:58:31.054Z,9.38
2019-03-05T05:00:59.494Z,6.67
2019-03-05T05:03:47.263Z,13.53
2019-03-05T05:06:15.672Z,6.08
2019-03-05T05:08:44.120Z,7.85
2019-03-05T05:11:12.608Z,10.95
2019-03-05T05:13:41.060Z,9.63
2019-03-05T05:16:09.480Z,6.05
2019-03-05T05:18:37.968Z,10.08
2019-03-05T05:21:06.448Z,8.43
2019-03-05T05:23:34.886Z,8.88
2019-03-05T05:26:03.320Z,8.80
2019-03-05T05:28:31.745Z,7.25
2019-03-05T05:31:00.207Z,6.75
2019-03-05T05:33:28.665Z,9.08
2019-03-05T05:35:57.110Z,8.13
2019-03-05T05:38:25.594Z,8.48
2019-03-05T05:40:54.219Z,5.75
2019-03-05T05:43:25.391Z,9.13
2019-03-05T05:45:54.259Z,9.33
2019-03-05T05:48:22.668Z,11.78
2019-03-05T05:50:54.734Z,10.25
2019-03-05T05:53:23.206Z,8.17
2019-03-05T05:55:51.712Z,7.40
2019-03-05T05:58:20.193Z,7.92
2019-03-05T06:00:53.280Z,8.73
2019-03-05T06:03:21.722Z,8.65
2019-03-05T06:05:50.198Z,9.88
2019-03-05T06:08:18.628Z,6.65
2019-03-05T06:10:47.272Z,8.08
2019-03-05T06:13:15.804Z,8.65
2019-03-05T06:15:44.293Z,6.35
2019-03-05T06:18:14.855Z,7.60
2019-03-05T06:20:43.331Z,8.83
2019-03-05T06:23:11.879Z,7.22
2019-03-05T06:25:40.473Z,9.73
2019-03-05T06:28:08.927Z,7.62
2019-03-05T06:30:39.848Z,10.30
2019-03-05T06:33:08.442Z,6.40
2019-03-05T06:35:37.167Z,4.95
2019-03-05T06:38:05.765Z,14.15
2019-03-05T06:40:34.198Z,5.70
2019-03-05T06:43:02.711Z,10.48
2019-03-05T06:45:31.155Z,7.47
2019-03-05T06:47:59.649Z,9.83
2019-03-05T06:50:28.967Z,6.47
2019-03-05T06:52:57.458Z,8.80
2019-03-05T06:55:25.890Z,7.25
2019-03-05T06:57:54.424Z,9.93
2019-03-05T07:03:16.988Z,8.73
2019-03-05T07:06:22.187Z,7.22
2019-03-05T07:09:02.628Z,6.45
2019-03-05T07:12:04.207Z,5.72
2019-03-05T07:14:41.421Z,6.53
2019-03-05T07:17:12.932Z,7.40
2019-03-05T07:20:18.673Z,8.85
2019-03-05T07:23:07.953Z,4.55
2019-03-05T07:25:36.424Z,6.75
2019-03-05T07:28:04.966Z,9.40
2019-03-05T07:30:33.511Z,9.10
2019-03-05T07:33:01.977Z,8.73
2019-03-05T07:35:30.808Z,7.22
2019-03-05T07:37:59.375Z,7.35
2019-03-05T07:40:27.882Z,7.08
2019-03-05T07:42:56.342Z,9.88
2019-03-05T07:45:24.898Z,7.55
2019-03-05T07:47:53.355Z,7.65
2019-03-05T07:50:21.836Z,5.47
2019-03-05T07:52:50.284Z,6.17
2019-03-05T07:55:19.042Z,9.08
2019-03-05T07:57:47.458Z,11.55
2019-03-05T08:00:20.303Z,6.97
2019-03-05T08:02:48.717Z,6.70
2019-03-05T08:05:17.341Z,11.03
2019-03-05T08:07:45.867Z,6.87
2019-03-05T08:10:22.950Z,7.75
2019-03-05T08:13:14.982Z,8.15
2019-03-05T08:16:17.329Z,7.45
2019-03-05T08:19:05.150Z,5.65
2019-03-05T08:21:34.363Z,6.42
2019-03-05T08:24:02.795Z,5.25
2019-03-05T08:26:31.316Z,11.50
2019-03-05T08:28:59.746Z,7.40
2019-03-05T08:31:28.177Z,7.78
2019-03-05T08:33:56.618Z,10.28
2019-03-05T08:36:25.110Z,4.95
2019-03-05T08:38:53.548Z,9.23
2019-03-05T08:41:22.102Z,7.35
2019-03-05T08:43:50.632Z,7.05
2019-03-05T08:46:21.872Z,5.58
2019-03-05T08:48:50.314Z,3.27
2019-03-05T08:51:18.784Z,8.90
2019-03-05T08:53:49.779Z,8.73
2019-03-05T08:56:17.471Z,6.75
2019-03-05T08:58:45.887Z,8.45
2019-03-05T09:01:14.416Z,9.38
2019-03-05T09:03:42.834Z,7.50
2019-03-05T09:06:11.409Z,6.62
2019-03-05T09:08:39.847Z,7.42
2019-03-05T09:11:08.430Z,7.53
2019-03-05T09:13:37.072Z,5.95
2019-03-05T09:16:05.866Z,5.83
2019-03-05T09:18:34.368Z,12.85
2019-03-05T09:21:02.809Z,8.43
2019-03-05T09:23:31.238Z,8.30
2019-03-05T09:25:59.672Z,7.53
2019-03-05T09:28:28.193Z,8.45
2019-03-05T09:30:56.735Z,5.83
2019-03-05T09:33:25.533Z,8.15
2019-03-05T09:35:54.148Z,7.42
2019-03-05T09:38:22.729Z,7.08
2019-03-05T09:40:51.207Z,9.18
2019-03-05T09:43:19.762Z,8.43
2019-03-05T09:45:48.245Z,7.92
2019-03-05T09:48:16.666Z,8.25
2019-03-05T09:50:46.289Z,7.17
2019-03-05T09:53:14.736Z,13.03
2019-03-05T09:55:43.139Z,8.33
2019-03-05T09:58:11.594Z,5.55
2019-03-05T10:00:40.533Z,4.53
2019-03-05T10:03:09.448Z,4.92
2019-03-05T10:05:37.934Z,4.28
2019-03-05T10:08:06.542Z,4.53
2019-03-05T10:10:35.215Z,2.75
2019-03-05T10:13:04.537Z,5.55
2019-03-05T10:15:33.210Z,5.70
2019-03-05T10:18:12.098Z,5.47
2019-03-05T10:20:33.827Z,5.87
2019-03-05T10:23:02.722Z,4.75
2019-03-05T10:25:31.210Z,3.92
2019-03-05T10:27:59.910Z,5.20
2019-03-05T10:30:34.058Z,5.20
2019-03-05T10:33:10.745Z,6.60
2019-03-05T10:35:39.553Z,5.03
2019-03-05T10:38:09.562Z,7.97
2019-03-05T10:40:43.431Z,5.00
2019-03-05T10:43:15.994Z,5.75
2019-03-05T10:45:48.683Z,7.08
2019-03-05T10:48:19.302Z,4.58
2019-03-05T10:50:48.395Z,2.35
2019-03-05T10:53:17.183Z,2.98
2019-03-05T10:55:45.917Z,3.10
2019-03-05T10:58:20.145Z,6.62
2019-03-05T11:00:53.588Z,4.53
2019-03-05T11:03:23.942Z,5.15
2019-03-05T11:05:52.903Z,4.15
2019-03-05T11:08:24.646Z,2.98
2019-03-05T11:10:54.438Z,5.42
2019-03-05T11:13:22.929Z,4.90
2019-03-05T11:15:57.000Z,4.20
2019-03-05T11:18:29.869Z,8.20
2019-03-05T11:20:56.077Z,3.90
2019-03-05T11:23:24.496Z,5.67
2019-03-05T11:25:52.962Z,7.67
2019-03-05T11:28:21.483Z,5.70
2019-03-05T11:30:50.028Z,5.47
2019-03-05T11:33:18.541Z,9.75
2019-03-05T11:35:46.938Z,7.12
2019-03-05T11:38:15.609Z,6.10
2019-03-05T11:40:44.136Z,6.37
2019-03-05T11:43:14.354Z,6.00
2019-03-05T11:45:43.716Z,5.15
2019-03-05T11:48:12.954Z,10.30
2019-03-05T11:50:41.627Z,10.18
2019-03-05T11:53:10.438Z,7.55
2019-03-05T11:55:38.906Z,6.85
2019-03-05T11:58:07.403Z,10.93
2019-03-05T12:00:53.806Z,9.88
2019-03-05T12:03:22.251Z,9.93
2019-03-05T12:05:50.708Z,7.20
2019-03-05T12:08:19.187Z,6.17
2019-03-05T12:10:47.761Z,6.83
2019-03-05T12:13:16.354Z,8.10
2019-03-05T12:15:45.614Z,8.28
2019-03-05T12:18:14.143Z,3.87
2019-03-05T12:20:42.710Z,7.05
2019-03-05T12:23:11.834Z,6.78
2019-03-05T12:25:41.106Z,5.47
2019-03-05T12:28:11.056Z,6.30
2019-03-05T12:30:40.463Z,8.30
2019-03-05T12:33:09.198Z,9.23
2019-03-05T12:35:37.686Z,7.62
2019-03-05T12:38:06.237Z,9.13
2019-03-05T12:40:34.781Z,5.35
2019-03-05T12:43:03.383Z,8.00
2019-03-05T12:45:32.236Z,9.03
2019-03-05T12:48:00.878Z,6.72
2019-03-05T12:50:30.794Z,10.45
2019-03-05T12:52:59.365Z,6.20
2019-03-05T12:55:27.977Z,7.30
2019-03-05T12:57:56.495Z,8.40
2019-03-05T13:00:30.328Z,9.38
2019-03-05T13:02:58.816Z,6.50
2019-03-05T13:05:32.514Z,6.03
2019-03-05T13:08:00.928Z,5.80
2019-03-05T13:10:35.683Z,10.15
2019-03-05T13:13:01.959Z,3.90
2019-03-05T13:15:31.752Z,3.15
2019-03-05T13:18:00.315Z,7.40
2019-03-05T13:20:28.873Z,7.80
2019-03-05T13:22:57.274Z,2.85
2019-03-05T13:25:28.634Z,4.67
2019-03-05T13:27:57.702Z,4.92
2019-03-05T13:30:28.444Z,4.15
2019-03-05T13:32:59.042Z,4.78
2019-03-05T13:35:30.279Z,7.37
2019-03-05T13:38:07.400Z,4.30
2019-03-05T13:40:38.261Z,3.98
2019-03-05T13:43:06.709Z,3.83
2019-03-05T13:45:35.434Z,4.42
2019-03-05T13:48:09.849Z,5.37
2019-03-05T13:51:13.276Z,4.75
2019-03-05T13:54:19.526Z,3.15
2019-03-05T13:56:53.816Z,3.22
2019-03-05T13:59:48.991Z,5.28
2019-03-05T14:02:26.525Z,2.98
2019-03-05T14:04:58.082Z,4.17
2019-03-05T14:07:58.261Z,3.58
2019-03-05T14:10:27.277Z,5.58
2019-03-05T14:12:55.790Z,3.50
2019-03-05T14:15:29.170Z,3.30
2019-03-05T14:17:57.775Z,7.83
2019-03-05T14:20:31.886Z,5.12
2019-03-05T14:22:56.551Z,3.45
2019-03-05T14:25:24.981Z,4.35
2019-03-05T14:27:53.408Z,4.72
2019-03-05T14:30:22.707Z,5.80
2019-03-05T14:33:00.944Z,8.33
2019-03-05T14:35:30.226Z,3.98
2019-03-05T14:37:58.656Z,4.03
2019-03-05T14:40:29.430Z,4.22
2019-03-05T14:42:58.328Z,5.10
2019-03-05T14:45:29.494Z,4.30
2019-03-05T14:47:59.411Z,3.92
2019-03-05T14:50:28.040Z,5.75
2019-03-05T14:52:56.649Z,3.30
2019-03-05T14:55:25.298Z,3.95
2019-03-05T14:57:54.016Z,4.65
2019-03-05T15:00:23.333Z,6.50
2019-03-05T15:02:51.877Z,6.95
2019-03-05T15:05:20.722Z,5.78
2019-03-05T15:07:49.303Z,3.75
2019-03-05T15:10:18.804Z,5.20
2019-03-05T15:12:47.386Z,3.22
2019-03-05T15:15:32.190Z,2.83
2019-03-05T15:18:00.800Z,3.17
2019-03-05T15:20:29.439Z,1.80
2019-03-05T15:22:57.978Z,4.42
2019-03-05T15:25:26.507Z,4.05
2019-03-05T15:27:54.911Z,2.35
2019-03-05T15:30:28.916Z,2.30
2019-03-05T15:32:57.094Z,2.75
2019-03-05T15:35:25.652Z,5.78
2019-03-05T15:37:54.156Z,4.65
2019-03-05T15:40:22.697Z,3.58
2019-03-05T15:42:51.221Z,1.60
2019-03-05T15:45:23.283Z,5.03
2019-03-05T15:47:51.745Z,2.20
2019-03-05T15:50:25.192Z,2.72
2019-03-05T15:52:53.660Z,3.10
2019-03-05T15:55:22.297Z,3.47
2019-03-05T15:57:50.727Z,4.12
2019-03-05T16:00:22.161Z,4.72
2019-03-05T16:02:50.687Z,3.90
2019-03-05T16:05:20.742Z,4.20
2019-03-05T16:07:49.660Z,2.37
2019-03-05T16:10:18.822Z,2.75
2019-03-05T16:12:47.550Z,3.47
2019-03-05T16:15:18.599Z,3.62
2019-03-05T16:17:46.979Z,4.05
2019-03-05T16:20:25.762Z,4.35
2019-03-05T16:22:55.129Z,5.60
2019-03-05T16:25:23.448Z,2.70
2019-03-05T16:27:51.980Z,3.92
2019-03-05T16:30:47.846Z,1.62
2019-03-05T16:33:20.509Z,2.55
2019-03-05T16:35:54.476Z,1.20
2019-03-05T16:38:30.679Z,1.55
2019-03-05T16:41:20.495Z,1.82
2019-03-05T16:43:51.940Z,1.20
2019-03-05T16:46:22.150Z,2.33
2019-03-05T16:49:01.045Z,3.55
2019-03-05T16:51:31.182Z,1.30
2019-03-05T16:54:01.570Z,1.40
2019-03-05T16:56:34.450Z,8.93
2019-03-05T16:59:07.205Z,3.22
2019-03-05T17:01:37.430Z,3.30
2019-03-05T17:04:10.835Z,1.32
2019-03-05T17:06:57.379Z,1.60
2019-03-05T17:09:27.535Z,1.55
2019-03-05T17:11:57.095Z,3.50
2019-03-05T17:14:26.038Z,1.75
2019-03-05T17:16:54.616Z,1.40
2019-03-05T17:19:23.132Z,1.92
2019-03-05T17:21:53.085Z,2.08
2019-03-05T17:24:21.909Z,1.95
2019-03-05T17:26:50.502Z,1.55
2019-03-05T17:29:19.051Z,2.00
2019-03-05T17:31:47.637Z,2.20
2019-03-05T17:34:16.123Z,2.22
2019-03-05T17:36:44.626Z,2.42
2019-03-05T17:39:14.772Z,2.27
2019-03-05T17:41:43.236Z,3.22
2019-03-05T17:44:11.731Z,3.75
2019-03-05T17:46:40.292Z,2.40
2019-03-05T17:49:08.730Z,3.72
2019-03-05T17:51:40.058Z,2.20
2019-03-05T17:54:08.583Z,2.33
2019-03-05T17:56:37.207Z,3.30
2019-03-05T17:59:06.081Z,3.02
2019-03-05T18:01:34.534Z,2.05
2019-03-05T18:04:03.046Z,7.80
2019-03-05T18:06:31.577Z,5.58
2019-03-05T18:09:00.003Z,3.90
2019-03-05T18:11:29.223Z,3.58
2019-03-05T18:13:57.805Z,2.42
2019-03-05T18:16:26.331Z,3.58
2019-03-05T18:18:54.803Z,2.70
2019-03-05T18:21:26.003Z,4.37
2019-03-05T18:23:54.891Z,3.35
2019-03-05T18:26:23.363Z,2.87
2019-03-05T18:28:51.821Z,3.77
2019-03-05T18:31:20.359Z,3.35
2019-03-05T18:33:48.775Z,3.05
2019-03-05T18:36:17.496Z,4.17
2019-03-05T18:38:46.059Z,2.95
2019-03-05T18:41:14.828Z,3.08
2019-03-05T18:43:43.467Z,3.20
2019-03-05T18:46:12.137Z,4.05
2019-03-05T18:48:40.594Z,5.30
2019-03-05T18:51:16.718Z,5.60
2019-03-05T18:53:45.264Z,5.45
2019-03-05T18:56:14.466Z,3.50
2019-03-05T18:58:42.938Z,5.45
2019-03-05T19:01:11.466Z,4.42
2019-03-05T19:03:40.936Z,4.20
2019-03-05T19:06:09.443Z,5.45
2019-03-05T19:08:37.886Z,3.85
2019-03-05T19:11:06.353Z,4.25
2019-03-05T19:13:37.598Z,4.53
2019-03-05T19:16:06.161Z,5.80
2019-03-05T19:18:34.632Z,5.22
2019-03-05T19:21:03.165Z,5.40
2019-03-05T19:23:31.632Z,5.08
2019-03-05T19:26:00.193Z,4.35
2019-03-05T19:28:28.731Z,5.37
2019-03-05T19:30:57.281Z,5.75
2019-03-05T19:33:25.754Z,6.08
2019-03-05T19:35:54.208Z,9.68
2019-03-05T19:38:22.984Z,5.45
2019-03-05T19:40:51.527Z,5.70
2019-03-05T19:43:20.058Z,6.95
2019-03-05T19:45:48.690Z,8.55
2019-03-05T19:48:17.118Z,8.48
2019-03-05T19:50:45.767Z,5.92
2019-03-05T19:53:14.303Z,9.53
2019-03-05T19:55:42.754Z,6.92
2019-03-05T19:58:17.160Z,6.62
2019-03-05T20:01:00.973Z,7.25
2019-03-05T20:03:29.371Z,8.28
2019-03-05T20:05:57.993Z,8.60
2019-03-05T20:08:26.578Z,9.73
2019-03-05T20:10:55.072Z,8.53
2019-03-05T20:13:23.511Z,8.05
2019-03-05T20:15:51.946Z,8.43
2019-03-05T20:18:20.388Z,10.93
2019-03-05T20:20:48.961Z,8.93
2019-03-05T20:23:17.450Z,11.85
2019-03-05T20:25:46.270Z,10.88
2019-03-05T20:28:14.768Z,10.43
2019-03-05T20:30:43.266Z,12.03
2019-03-05T20:33:11.812Z,10.85
2019-03-05T20:35:40.388Z,10.58
2019-03-05T20:38:08.894Z,10.93
2019-03-05T20:40:37.390Z,11.63
2019-03-05T20:43:06.161Z,10.95
2019-03-05T20:45:37.519Z,10.88
2019-03-05T20:48:06.350Z,11.73
2019-03-05T20:50:35.038Z,10.30
2019-03-05T20:53:09.388Z,9.28
2019-03-05T20:55:37.898Z,11.18
2019-03-05T20:58:06.489Z,13.10
2019-03-05T21:00:39.051Z,8.95
2019-03-05T21:03:11.543Z,16.17
2019-03-05T21:05:47.378Z,12.15
2019-03-05T21:08:15.912Z,12.60
2019-03-05T21:10:44.470Z,11.22
2019-03-05T21:13:13.094Z,12.60
2019-03-05T21:15:41.589Z,14.53
2019-03-05T21:18:30.876Z,12.28
2019-03-05T21:20:59.652Z,12.40
2019-03-05T21:23:28.142Z,14.25
2019-03-05T21:25:56.725Z,13.60
2019-03-05T21:28:25.262Z,14.43
2019-03-05T21:30:53.729Z,12.95
2019-03-05T21:33:22.804Z,15.18
2019-03-05T21:35:51.564Z,14.45
2019-03-05T21:38:20.075Z,15.72
2019-03-05T21:40:48.523Z,16.27
2019-03-05T21:43:17.020Z,18.30
2019-03-05T21:45:48.934Z,17.85
2019-03-05T21:48:17.378Z,12.78
2019-03-05T21:50:45.875Z,12.33
2019-03-05T21:53:15.078Z,9.90
2019-03-05T21:55:43.513Z,11.25
2019-03-05T21:58:12.230Z,12.88
2019-03-05T22:00:41.865Z,10.00
2019-03-05T22:03:10.470Z,9.60
2019-03-05T22:05:38.918Z,10.55
2019-03-05T22:08:07.338Z,9.13
2019-03-05T22:10:36.138Z,8.85
2019-03-05T22:13:04.738Z,7.97
2019-03-05T22:15:37.073Z,10.85
2019-03-05T22:18:05.761Z,9.05
2019-03-05T22:20:34.307Z,6.92
2019-03-05T22:23:02.759Z,6.65
2019-03-05T22:25:31.224Z,8.75
2019-03-05T22:27:59.745Z,8.95
2019-03-05T22:30:30.474Z,8.53
2019-03-05T22:32:59.048Z,6.80
2019-03-05T22:35:27.463Z,7.95
2019-03-05T22:37:55.984Z,6.95
2019-03-05T22:40:25.269Z,8.40
2019-03-05T22:42:53.686Z,8.13
2019-03-05T22:45:27.074Z,9.18
2019-03-05T22:47:55.743Z,11.55
2019-03-05T22:50:24.318Z,7.62
2019-03-05T22:52:52.947Z,6.65
2019-03-05T22:55:21.579Z,7.40
2019-03-05T22:57:50.062Z,9.28
2019-03-05T23:00:32.066Z,6.22
2019-03-05T23:03:01.624Z,5.22
2019-03-05T23:05:30.443Z,5.00
2019-03-05T23:07:58.996Z,6.03
2019-03-05T23:10:27.565Z,4.37
2019-03-05T23:12:56.194Z,6.58
2019-03-05T23:15:24.822Z,9.88
2019-03-05T23:17:53.424Z,7.35
2019-03-05T23:20:22.158Z,5.67
2019-03-05T23:22:50.897Z,4.95
2019-03-05T23:25:20.570Z,6.90
2019-03-05T23:27:49.039Z,6.70
2019-03-05T23:30:20.327Z,8.08
2019-03-05T23:32:50.489Z,7.30
2019-03-05T23:35:19.132Z,6.08
2019-03-05T23:37:47.686Z,4.50
2019-03-05T23:40:17.203Z,6.12
2019-03-05T23:42:45.780Z,6.90
2019-03-05T23:45:17.290Z,7.20
2019-03-05T23:47:45.843Z,5.97
2019-03-05T23:50:17.488Z,7.30
2019-03-05T23:52:45.918Z,6.53
2019-03-05T23:55:15.138Z,7.10
2019-03-05T23:57:43.844Z,8.50
